Time;durP1;ratioP1;P1;durP2;ratioP2;P2;SDS_P1;SDS_P2;PMS_P1;PMS_P2;Temp;Humidity;BMP_temperature;BMP_pressure;BME280_temperature;BME280_humidity;BME280_pressure;Samples;Min_cycle;Max_cycle;Signal;HPM_P1;HPM_P2
2022/11/22 00:00:35;;;;;;;4.90;0.97;;;6.80;99.90;;;;;;4996128;28;20315;-77
2022/11/22 00:03:01;;;;;;;2.13;1.10;;;6.80;99.90;;;;;;5014061;28;20507;-77
2022/11/22 00:05:26;;;;;;;2.07;0.87;;;6.80;99.90;;;;;;5012646;28;20722;-77
2022/11/22 00:07:52;;;;;;;1.00;0.80;;;6.90;99.90;;;;;;5013904;28;20181;-78
2022/11/22 00:10:18;;;;;;;1.53;0.77;;;6.90;99.90;;;;;;4979940;28;20283;-78
2022/11/22 00:12:44;;;;;;;2.60;0.97;;;7.00;99.90;;;;;;5013518;28;20195;-79
2022/11/22 00:15:11;;;;;;;1.73;0.70;;;7.00;99.90;;;;;;5012553;28;20228;-78
2022/11/22 00:17:36;;;;;;;3.73;1.03;;;7.00;99.90;;;;;;5013599;28;20447;-76
2022/11/22 00:20:03;;;;;;;1.63;0.83;;;7.00;99.90;;;;;;5013887;28;20451;-77
2022/11/22 00:22:31;;;;;;;4.47;1.10;;;6.90;99.90;;;;;;5012408;28;20881;-76
2022/11/22 00:24:56;;;;;;;1.60;0.70;;;7.00;99.90;;;;;;5012469;28;20454;-76
2022/11/22 00:27:22;;;;;;;3.53;0.80;;;7.00;99.90;;;;;;5012155;28;20463;-77
2022/11/22 00:29:47;;;;;;;2.03;1.00;;;7.10;99.90;;;;;;5011893;28;20215;-76
2022/11/22 00:32:13;;;;;;;0.90;0.80;;;7.00;99.90;;;;;;5012070;28;20188;-76
2022/11/22 00:34:39;;;;;;;2.70;0.87;;;7.10;99.90;;;;;;5013160;28;20189;-79
2022/11/22 00:37:05;;;;;;;2.03;1.20;;;7.10;99.90;;;;;;5011887;28;20192;-78
2022/11/22 00:39:31;;;;;;;2.37;0.67;;;7.10;99.90;;;;;;5012091;28;20435;-76
2022/11/22 00:41:56;;;;;;;3.27;0.80;;;7.00;99.90;;;;;;5013395;28;20504;-75
2022/11/22 00:44:22;;;;;;;2.83;1.20;;;7.10;99.90;;;;;;5012527;28;20196;-79
2022/11/22 00:46:48;;;;;;;1.47;0.67;;;7.10;99.90;;;;;;4978187;28;20217;-79
2022/11/22 00:49:13;;;;;;;3.53;0.63;;;7.10;99.90;;;;;;4997404;28;20200;-79
2022/11/22 00:51:39;;;;;;;6.93;0.90;;;7.10;99.90;;;;;;5011685;28;20182;-78
2022/11/22 00:54:05;;;;;;;1.57;0.80;;;7.10;99.90;;;;;;5012297;28;20223;-79
2022/11/22 00:56:30;;;;;;;1.57;0.70;;;7.10;99.90;;;;;;5011052;28;20279;-79
2022/11/22 00:58:56;;;;;;;3.37;0.80;;;7.10;99.90;;;;;;4994648;28;20204;-79
2022/11/22 01:01:22;;;;;;;2.30;1.00;;;7.10;99.90;;;;;;4994608;28;20209;-79
2022/11/22 01:03:48;;;;;;;4.10;0.90;;;7.10;99.90;;;;;;5012122;28;20314;-78
2022/11/22 01:06:13;;;;;;;3.63;0.80;;;7.20;99.90;;;;;;4994445;28;20235;-77
2022/11/22 01:08:39;;;;;;;0.70;0.60;;;7.20;99.90;;;;;;4993943;28;20188;-76
2022/11/22 01:11:04;;;;;;;4.60;1.00;;;7.20;99.90;;;;;;4994236;28;20232;-77
2022/11/22 01:13:30;;;;;;;2.70;1.20;;;7.20;99.90;;;;;;5010397;28;20177;-76
2022/11/22 01:16:14;;;;;;;3.00;1.00;;;7.20;99.90;;;;;;5010357;28;20231;-77
2022/11/22 01:18:40;;;;;;;1.50;0.83;;;7.20;99.90;;;;;;5011726;28;20446;-76
2022/11/22 01:21:06;;;;;;;3.33;1.00;;;7.10;99.90;;;;;;5011331;28;20944;-79
2022/11/22 01:23:33;;;;;;;2.30;1.60;;;7.10;99.90;;;;;;4993743;28;20288;-79
2022/11/22 01:25:58;;;;;;;1.30;0.80;;;7.10;99.90;;;;;;5009763;28;20217;-78
2022/11/22 01:28:24;;;;;;;1.77;0.80;;;7.00;99.90;;;;;;5011614;28;20508;-79
2022/11/22 01:30:51;;;;;;;108.57;44.17;;;7.00;99.90;;;;;;4993544;28;20197;-77
2022/11/22 01:33:16;;;;;;;5.43;3.00;;;7.10;99.90;;;;;;5011155;28;20742;-76
2022/11/22 01:35:42;;;;;;;2.30;1.60;;;7.20;99.90;;;;;;5011316;28;20495;-76
2022/11/22 01:38:08;;;;;;;3.90;1.50;;;7.10;99.90;;;;;;5011574;28;20243;-77
2022/11/22 01:40:34;;;;;;;1.30;1.03;;;7.10;99.90;;;;;;5011150;28;20236;-76
2022/11/22 01:43:00;;;;;;;1.33;1.20;;;7.00;99.90;;;;;;5011262;28;20180;-77
2022/11/22 01:45:28;;;;;;;1.57;1.07;;;7.00;99.90;;;;;;5011737;28;20212;-76
2022/11/22 01:48:04;;;;;;;3.73;1.10;;;6.90;99.90;;;;;;5011324;28;20491;-77
2022/11/22 01:50:34;;;;;;;2.50;1.50;;;6.90;99.90;;;;;;5009948;28;20452;-77
2022/11/22 01:53:05;;;;;;;1.77;1.00;;;6.80;99.90;;;;;;5011389;28;20430;-77
2022/11/22 01:55:32;;;;;;;3.70;1.87;;;6.70;99.90;;;;;;5009434;28;20420;-78
2022/11/22 01:57:59;;;;;;;1.57;1.10;;;6.60;99.90;;;;;;5008855;28;20425;-77
2022/11/22 02:00:25;;;;;;;1.77;1.60;;;6.50;99.90;;;;;;4993366;28;20448;-77
2022/11/22 02:02:55;;;;;;;2.23;1.17;;;6.40;99.90;;;;;;5010816;28;20918;-77
2022/11/22 02:05:23;;;;;;;1.93;1.10;;;6.40;99.90;;;;;;5010768;28;20168;-77
2022/11/22 02:08:00;;;;;;;2.40;1.47;;;6.30;99.90;;;;;;5009163;28;20487;-77
2022/11/22 02:10:28;;;;;;;1.50;1.40;;;6.20;99.90;;;;;;5010377;28;20442;-78
2022/11/22 02:12:57;;;;;;;1.70;1.30;;;6.20;99.90;;;;;;5008706;28;20432;-76
2022/11/22 02:15:23;;;;;;;2.97;1.50;;;6.10;99.90;;;;;;5010095;28;20424;-76
2022/11/22 02:17:48;;;;;;;2.37;1.50;;;6.20;99.90;;;;;;5009996;28;20463;-76
2022/11/22 02:20:16;;;;;;;1.60;1.50;;;6.20;99.90;;;;;;5009979;28;20444;-76
2022/11/22 02:23:03;;;;;;;3.50;2.00;;;6.20;99.90;;;;;;5008457;28;20200;-76
2022/11/22 02:25:41;;;;;;;3.47;2.10;;;6.10;99.90;;;;;;5008642;28;20781;-79
2022/11/22 02:28:12;;;;;;;3.43;1.90;;;6.10;99.90;;;;;;5009737;28;20424;-79
2022/11/22 02:30:39;;;;;;;2.60;2.27;;;6.40;99.90;;;;;;5008580;28;20448;-80
2022/11/22 02:33:05;;;;;;;4.73;1.70;;;6.20;99.90;;;;;;5008538;28;20428;-80
2022/11/22 02:35:31;;;;;;;1.83;1.10;;;6.30;99.90;;;;;;4992039;28;21030;-79
2022/11/22 02:38:14;;;;;;;2.63;1.13;;;6.30;99.90;;;;;;5008408;28;21005;-79
2022/11/22 02:40:47;;;;;;;2.73;1.50;;;6.40;99.90;;;;;;5008333;28;20574;-79
2022/11/22 02:43:22;;;;;;;2.40;1.13;;;6.40;99.90;;;;;;5009605;28;20392;-79
2022/11/22 02:45:47;;;;;;;11.23;2.27;;;6.40;99.90;;;;;;4992204;28;20518;-78
2022/11/22 02:48:15;;;;;;;3.27;1.20;;;6.50;99.90;;;;;;4992000;28;21268;-79
2022/11/22 02:50:41;;;;;;;6.50;1.50;;;6.50;99.90;;;;;;5009500;28;20209;-78
2022/11/22 02:53:08;;;;;;;3.17;1.53;;;6.60;99.90;;;;;;4991912;28;20474;-78
2022/11/22 02:55:33;;;;;;;4.53;1.10;;;6.70;99.90;;;;;;5009142;28;20501;-79
2022/11/22 02:57:59;;;;;;;5.70;1.20;;;6.70;99.90;;;;;;5008252;28;20933;-79
2022/11/22 03:00:25;;;;;;;3.80;1.30;;;6.70;99.90;;;;;;4991812;28;20259;-79
2022/11/22 03:02:50;;;;;;;3.00;0.83;;;6.70;99.90;;;;;;5009245;28;20280;-79
2022/11/22 03:05:16;;;;;;;4.50;1.37;;;6.70;99.90;;;;;;5009434;28;20185;-79
2022/11/22 03:07:42;;;;;;;2.60;1.10;;;6.70;99.90;;;;;;5008061;28;20292;-79
2022/11/22 03:10:08;;;;;;;4.00;1.50;;;6.70;99.90;;;;;;5007058;28;21182;-79
2022/11/22 03:12:34;;;;;;;3.63;1.10;;;6.60;99.90;;;;;;5007941;28;20200;-79
2022/11/22 03:14:59;;;;;;;5.53;1.00;;;6.60;99.90;;;;;;5009115;28;20988;-77
2022/11/22 03:17:25;;;;;;;6.87;1.37;;;6.60;99.90;;;;;;5008886;28;20271;-77
2022/11/22 03:19:50;;;;;;;3.40;1.30;;;6.70;99.90;;;;;;5007518;28;20212;-78
2022/11/22 03:22:16;;;;;;;7.60;1.40;;;6.70;99.90;;;;;;5007639;28;20235;-77
2022/11/22 03:24:41;;;;;;;7.80;1.10;;;6.70;99.90;;;;;;5007530;28;20197;-77
2022/11/22 03:27:07;;;;;;;5.80;1.03;;;6.70;99.90;;;;;;5008838;28;20226;-76
2022/11/22 03:29:33;;;;;;;2.93;1.00;;;6.70;99.90;;;;;;5007696;28;20205;-77
2022/11/22 03:31:58;;;;;;;4.00;1.13;;;6.80;99.90;;;;;;5008966;28;20216;-77
2022/11/22 03:34:24;;;;;;;9.67;1.23;;;6.80;99.90;;;;;;5009582;28;20287;-77
2022/11/22 03:36:50;;;;;;;7.20;1.10;;;6.80;99.90;;;;;;5009273;28;20186;-76
2022/11/22 03:39:16;;;;;;;8.80;1.27;;;6.80;99.90;;;;;;5008949;28;20925;-77
2022/11/22 03:41:41;;;;;;;8.03;1.23;;;6.90;99.90;;;;;;5009180;28;20194;-78
2022/11/22 03:44:07;;;;;;;6.17;1.00;;;7.00;99.90;;;;;;5009348;28;20185;-78
2022/11/22 03:46:33;;;;;;;9.80;1.57;;;6.90;99.90;;;;;;5007547;28;20216;-78
2022/11/22 03:48:58;;;;;;;1.60;0.90;;;7.00;99.90;;;;;;5008632;28;20260;-76
2022/11/22 03:51:25;;;;;;;8.63;1.70;;;6.90;99.90;;;;;;5009563;28;20204;-78
2022/11/22 03:53:51;;;;;;;13.87;1.10;;;6.90;99.90;;;;;;5009401;28;20182;-77
2022/11/22 03:56:16;;;;;;;5.47;1.33;;;6.90;99.90;;;;;;5008050;28;20428;-77
2022/11/22 03:58:42;;;;;;;2.50;1.27;;;7.00;99.90;;;;;;5009370;28;20209;-77
2022/11/22 04:01:07;;;;;;;7.20;0.80;;;7.00;99.90;;;;;;5010870;28;20206;-77
2022/11/22 04:03:33;;;;;;;3.67;1.00;;;7.00;99.90;;;;;;4991826;28;20243;-77
2022/11/22 04:05:58;;;;;;;2.27;0.70;;;6.90;99.90;;;;;;5009056;28;20215;-77
2022/11/22 04:08:24;;;;;;;6.27;1.03;;;6.90;99.90;;;;;;5009441;28;20200;-77
2022/11/22 04:10:50;;;;;;;4.80;1.17;;;6.90;99.90;;;;;;5009962;28;20272;-76
2022/11/22 04:13:17;;;;;;;10.77;1.03;;;6.90;99.90;;;;;;5009409;28;20697;-76
2022/11/22 04:15:43;;;;;;;8.00;1.10;;;6.90;99.90;;;;;;5010075;28;20420;-76
2022/11/22 04:18:12;;;;;;;3.93;1.13;;;6.90;99.90;;;;;;5008799;28;20498;-76
2022/11/22 04:23:24;;;;;;;4.97;1.17;;;7.10;99.90;;;;;;5013717;28;20446;-77
2022/11/22 04:25:52;;;;;;;5.00;2.00;;;7.00;99.90;;;;;;5013024;28;20472;-76
2022/11/22 04:28:20;;;;;;;7.20;0.97;;;7.00;99.90;;;;;;5011478;28;20470;-76
2022/11/22 04:33:30;;;;;;;5.53;1.10;;;6.80;99.90;;;;;;5013182;28;20415;-76
2022/11/22 04:35:56;;;;;;;4.40;0.83;;;6.90;99.90;;;;;;5011459;28;20429;-76
2022/11/22 04:38:22;;;;;;;4.70;1.23;;;6.80;99.90;;;;;;5012809;28;20650;-76
2022/11/22 04:40:48;;;;;;;7.10;1.17;;;6.90;99.90;;;;;;5011823;28;20307;-76
2022/11/22 04:46:14;;;;;;;10.73;1.37;;;6.70;99.90;;;;;;5013293;28;20467;-77
2022/11/22 04:48:40;;;;;;;3.03;0.93;;;6.70;99.90;;;;;;5012714;28;20424;-77
2022/11/22 04:53:51;;;;;;;14.40;1.60;;;6.70;99.90;;;;;;5012822;28;20475;-76
2022/11/22 04:56:17;;;;;;;6.87;1.00;;;6.70;99.90;;;;;;5012444;28;20921;-77
2022/11/22 04:58:43;;;;;;;2.40;1.10;;;6.60;99.90;;;;;;4994381;28;20432;-79
2022/11/22 05:01:09;;;;;;;4.27;0.90;;;6.60;99.90;;;;;;5010684;28;20452;-76
2022/11/22 05:03:35;;;;;;;9.87;1.23;;;6.60;99.90;;;;;;5012481;28;20902;-77
2022/11/22 05:06:02;;;;;;;8.03;1.73;;;6.60;99.90;;;;;;4983407;28;20479;-77
2022/11/22 05:08:28;;;;;;;3.27;1.03;;;6.60;99.90;;;;;;5011546;28;20183;-77
2022/11/22 05:10:57;;;;;;;8.87;0.80;;;6.60;99.90;;;;;;4993657;28;20984;-77
2022/11/22 05:13:29;;;;;;;5.53;1.13;;;6.60;99.90;;;;;;5011063;28;20964;-77
2022/11/22 05:15:56;;;;;;;6.73;1.20;;;6.60;99.90;;;;;;5010877;28;20914;-77
2022/11/22 05:18:23;;;;;;;8.37;1.60;;;6.50;99.90;;;;;;5008973;28;20459;-77
2022/11/22 05:20:48;;;;;;;3.30;1.33;;;6.50;99.90;;;;;;5009188;28;20452;-76
2022/11/22 05:25:59;;;;;;;4.47;1.47;;;6.50;99.90;;;;;;5010587;28;20259;-77
2022/11/22 05:28:29;;;;;;;2.13;1.17;;;6.50;99.90;;;;;;5009080;28;20456;-77
2022/11/22 05:30:55;;;;;;;9.23;1.20;;;6.40;99.90;;;;;;5009070;28;20248;-77
2022/11/22 05:33:21;;;;;;;4.73;1.13;;;6.40;99.90;;;;;;5007947;28;20460;-76
2022/11/22 05:35:47;;;;;;;9.60;1.50;;;6.30;99.90;;;;;;5010595;28;20993;-77
2022/11/22 05:38:12;;;;;;;7.60;1.73;;;6.30;99.90;;;;;;5009599;28;20526;-77
2022/11/22 05:40:38;;;;;;;2.40;1.10;;;6.30;99.90;;;;;;5009379;28;20658;-77
2022/11/22 05:43:03;;;;;;;5.13;1.20;;;6.30;99.90;;;;;;5009662;28;20181;-77
2022/11/22 05:45:29;;;;;;;5.43;1.60;;;6.30;99.90;;;;;;5009188;28;20192;-77
2022/11/22 05:47:55;;;;;;;10.43;1.43;;;6.40;99.90;;;;;;5010390;28;20268;-77
2022/11/22 05:50:21;;;;;;;5.10;1.43;;;6.40;99.90;;;;;;5008609;28;20213;-77
2022/11/22 05:52:47;;;;;;;7.03;1.00;;;6.20;99.90;;;;;;5008639;28;20420;-76
2022/11/22 05:55:13;;;;;;;2.70;1.27;;;6.20;99.90;;;;;;5009125;28;20455;-76
2022/11/22 05:57:38;;;;;;;7.60;1.10;;;6.10;99.90;;;;;;4992570;28;20207;-76
2022/11/22 06:00:05;;;;;;;5.13;1.20;;;6.20;99.90;;;;;;5008532;28;20288;-76
2022/11/22 06:02:31;;;;;;;2.57;1.07;;;6.10;99.90;;;;;;5010168;28;20676;-76
2022/11/22 06:04:56;;;;;;;7.80;1.33;;;6.20;99.90;;;;;;5009836;28;20426;-77
2022/11/22 06:07:22;;;;;;;5.67;1.30;;;6.20;99.90;;;;;;5008661;28;20566;-76
2022/11/22 06:09:47;;;;;;;5.27;1.07;;;6.20;99.90;;;;;;5008216;28;20205;-76
2022/11/22 06:12:13;;;;;;;10.43;1.10;;;6.10;99.90;;;;;;5008463;28;20656;-76
2022/11/22 06:14:39;;;;;;;7.83;1.37;;;6.20;99.90;;;;;;5008466;28;20738;-76
2022/11/22 06:17:05;;;;;;;3.80;1.00;;;6.10;99.90;;;;;;5009617;28;20450;-76
2022/11/22 06:19:31;;;;;;;7.50;1.20;;;6.10;99.90;;;;;;5008389;28;20205;-76
2022/11/22 06:21:56;;;;;;;3.20;1.47;;;6.10;99.90;;;;;;5009940;28;20177;-76
2022/11/22 06:24:22;;;;;;;2.37;1.00;;;6.00;99.90;;;;;;5009631;28;20193;-76
2022/11/22 06:26:47;;;;;;;7.03;1.10;;;6.00;99.90;;;;;;5009677;28;20216;-76
2022/11/22 06:29:13;;;;;;;5.83;1.70;;;6.00;99.90;;;;;;5008342;28;20271;-77
2022/11/22 06:31:39;;;;;;;8.70;1.53;;;6.10;99.90;;;;;;5009271;28;20208;-76
2022/11/22 06:34:05;;;;;;;8.50;1.50;;;6.00;99.90;;;;;;5008088;28;20416;-76
2022/11/22 06:36:32;;;;;;;7.87;1.43;;;6.10;99.90;;;;;;5007962;28;20181;-77
2022/11/22 06:38:58;;;;;;;4.03;1.20;;;6.00;99.90;;;;;;5007651;28;20291;-76
2022/11/22 06:41:26;;;;;;;4.63;1.87;;;5.90;99.90;;;;;;5008158;28;20531;-76
2022/11/22 06:43:56;;;;;;;9.00;1.43;;;5.90;99.90;;;;;;5007678;28;20189;-76
2022/11/22 06:46:23;;;;;;;2.83;1.27;;;5.80;99.90;;;;;;5007439;28;20476;-76
2022/11/22 06:48:49;;;;;;;1.90;1.00;;;5.80;99.90;;;;;;5007464;28;20442;-75
2022/11/22 06:51:19;;;;;;;7.30;1.30;;;5.90;99.90;;;;;;5007256;28;20859;-77
2022/11/22 06:53:45;;;;;;;4.23;1.23;;;5.80;99.90;;;;;;5008432;28;20574;-76
2022/11/22 06:56:14;;;;;;;6.43;1.53;;;5.70;99.90;;;;;;5008299;28;20803;-76
2022/11/22 06:58:40;;;;;;;8.60;1.30;;;5.60;99.90;;;;;;5006784;28;20432;-76
2022/11/22 07:01:11;;;;;;;6.47;1.20;;;5.70;99.90;;;;;;5006727;28;20475;-76
2022/11/22 07:03:38;;;;;;;10.02;1.45;;;5.80;99.90;;;;;;5008180;28;20432;-76
2022/11/22 07:06:06;;;;;;;12.93;1.43;;;5.90;99.90;;;;;;5008085;28;20212;-76
2022/11/22 07:08:31;;;;;;;8.07;1.40;;;5.80;99.90;;;;;;5006713;28;20462;-76
2022/11/22 07:11:05;;;;;;;9.03;1.30;;;5.90;99.90;;;;;;5008011;28;21274;-76
2022/11/22 07:13:31;;;;;;;5.83;1.10;;;6.00;99.90;;;;;;5008089;28;20185;-76
2022/11/22 07:15:58;;;;;;;5.33;1.00;;;6.10;99.90;;;;;;5006429;28;20447;-76
2022/11/22 07:18:24;;;;;;;7.53;1.87;;;6.20;99.90;;;;;;5008144;28;21037;-76
2022/11/22 07:20:50;;;;;;;17.03;1.97;;;6.20;99.90;;;;;;5008769;28;20451;-76
2022/11/22 07:23:16;;;;;;;19.53;1.80;;;6.30;99.90;;;;;;5007932;28;21238;-76
2022/11/22 07:25:45;;;;;;;15.50;4.63;;;6.50;99.90;;;;;;5006595;28;20431;-76
2022/11/22 07:28:12;;;;;;;5.33;1.50;;;6.40;99.90;;;;;;5008045;28;20188;-76
2022/11/22 07:30:38;;;;;;;4.73;1.53;;;6.50;99.90;;;;;;5006332;28;20476;-76
2022/11/22 07:33:03;;;;;;;4.80;1.37;;;6.50;99.90;;;;;;5006214;28;20558;-77
2022/11/22 07:35:29;;;;;;;7.07;1.40;;;6.60;99.90;;;;;;4989959;28;20436;-76
2022/11/22 07:37:54;;;;;;;19.03;8.90;;;6.50;99.90;;;;;;5008254;28;20220;-76
2022/11/22 07:40:20;;;;;;;5.27;2.20;;;6.40;99.90;;;;;;5006514;28;20294;-75
2022/11/22 07:42:46;;;;;;;7.30;2.03;;;6.50;99.90;;;;;;5006574;28;20192;-76
2022/11/22 07:45:11;;;;;;;9.20;1.87;;;6.50;99.90;;;;;;5008036;28;20193;-76
2022/11/22 07:47:37;;;;;;;5.27;2.00;;;6.60;99.90;;;;;;5007899;28;20208;-75
2022/11/22 07:50:03;;;;;;;8.63;1.47;;;6.70;99.90;;;;;;5007995;28;20565;-76
2022/11/22 07:52:28;;;;;;;8.77;1.83;;;6.70;99.90;;;;;;5008009;28;20184;-76
2022/11/22 07:54:54;;;;;;;4.57;1.37;;;6.70;99.90;;;;;;5008131;28;21094;-76
2022/11/22 07:57:20;;;;;;;7.23;1.90;;;6.70;99.90;;;;;;4992635;28;20207;-75
2022/11/22 07:59:46;;;;;;;7.63;1.23;;;6.60;99.90;;;;;;5009893;28;20662;-76
2022/11/22 08:02:11;;;;;;;8.83;1.40;;;6.70;99.90;;;;;;5009955;28;20643;-75
2022/11/22 08:04:37;;;;;;;11.57;1.73;;;6.60;99.90;;;;;;5009732;28;20235;-76
2022/11/22 08:07:03;;;;;;;6.73;1.27;;;6.60;99.90;;;;;;5011613;28;20574;-76
2022/11/22 08:09:29;;;;;;;10.93;2.20;;;6.60;99.90;;;;;;5011492;28;20169;-76
2022/11/22 08:11:55;;;;;;;5.10;1.10;;;6.70;99.90;;;;;;5010142;28;20748;-75
2022/11/22 08:14:21;;;;;;;8.43;1.40;;;6.70;99.90;;;;;;5011774;28;20182;-75
2022/11/22 08:16:46;;;;;;;10.83;1.67;;;6.80;99.90;;;;;;5010084;28;20428;-75
2022/11/22 08:19:16;;;;;;;11.10;1.40;;;6.90;99.90;;;;;;5011944;28;20657;-76
2022/11/22 08:21:42;;;;;;;7.80;1.43;;;6.90;99.90;;;;;;5010129;28;20697;-75
2022/11/22 08:24:07;;;;;;;5.43;1.50;;;6.90;99.90;;;;;;5011309;28;20428;-75
2022/11/22 08:26:33;;;;;;;10.97;1.83;;;6.90;99.90;;;;;;5009737;28;20988;-75
2022/11/22 08:28:59;;;;;;;7.53;1.80;;;6.80;99.90;;;;;;5011611;28;20181;-76
2022/11/22 08:31:25;;;;;;;3.70;1.63;;;6.90;99.90;;;;;;5011650;28;21031;-76
2022/11/22 08:33:54;;;;;;;9.27;1.83;;;6.90;99.90;;;;;;5011270;28;20527;-75
2022/11/22 08:36:21;;;;;;;10.23;1.93;;;6.90;99.90;;;;;;5009813;28;20424;-76
2022/11/22 08:38:46;;;;;;;12.50;2.50;;;7.00;99.90;;;;;;5011052;28;20926;-75
2022/11/22 08:41:12;;;;;;;5.70;2.20;;;7.10;99.90;;;;;;5011317;28;20436;-75
2022/11/22 08:43:38;;;;;;;9.40;2.50;;;7.10;99.90;;;;;;5009772;28;20180;-76
2022/11/22 08:46:04;;;;;;;5.13;1.67;;;7.20;99.90;;;;;;5011875;28;20824;-76
2022/11/22 08:48:32;;;;;;;6.27;1.93;;;7.30;99.90;;;;;;5009730;28;20429;-76
2022/11/22 08:51:04;;;;;;;5.50;2.03;;;7.30;99.90;;;;;;5011290;28;20444;-75
2022/11/22 08:53:35;;;;;;;12.90;1.57;;;7.40;99.90;;;;;;5010984;28;20431;-76
2022/11/22 08:56:02;;;;;;;4.40;1.53;;;7.30;99.90;;;;;;5011110;28;20421;-76
2022/11/22 08:58:32;;;;;;;7.73;1.17;;;7.40;99.90;;;;;;5011237;28;20448;-76
2022/11/22 09:01:12;;;;;;;6.57;1.97;;;7.40;99.90;;;;;;5009408;28;21048;-75
2022/11/22 09:03:39;;;;;;;11.17;1.43;;;7.50;99.90;;;;;;5009719;28;20402;-76
2022/11/22 09:06:07;;;;;;;3.43;1.57;;;7.50;99.90;;;;;;4992731;28;20475;-76
2022/11/22 09:08:34;;;;;;;9.90;1.70;;;7.60;99.90;;;;;;5009642;28;20554;-76
2022/11/22 09:11:05;;;;;;;13.10;1.43;;;7.70;99.90;;;;;;4992846;28;20445;-75
2022/11/22 09:13:31;;;;;;;4.30;1.50;;;7.80;99.90;;;;;;5008883;28;20408;-76
2022/11/22 09:16:04;;;;;;;6.47;1.50;;;7.80;99.90;;;;;;5010537;28;20487;-75
2022/11/22 09:18:30;;;;;;;5.07;1.40;;;7.80;99.90;;;;;;4993003;28;20766;-75
2022/11/22 09:21:01;;;;;;;6.03;1.47;;;7.80;99.90;;;;;;5010550;28;21005;-76
2022/11/22 09:23:27;;;;;;;7.50;1.43;;;7.80;99.90;;;;;;5010286;28;20406;-76
2022/11/22 09:26:01;;;;;;;9.73;1.93;;;7.80;99.90;;;;;;5008877;28;20475;-76
2022/11/22 09:28:28;;;;;;;4.20;1.77;;;7.90;99.90;;;;;;5008976;28;20423;-75
2022/11/22 09:31:05;;;;;;;7.30;1.87;;;7.80;99.90;;;;;;5010363;28;20436;-76
2022/11/22 09:33:34;;;;;;;6.73;2.43;;;7.90;99.90;;;;;;5011128;28;20914;-76
2022/11/22 09:36:08;;;;;;;10.77;2.27;;;7.80;99.90;;;;;;5010617;28;20499;-76
2022/11/22 09:38:35;;;;;;;6.43;1.57;;;7.90;99.90;;;;;;5010119;28;20426;-76
2022/11/22 09:41:12;;;;;;;3.77;1.67;;;7.90;99.90;;;;;;5008549;28;21111;-76
2022/11/22 09:44:05;;;;;;;2.07;1.23;;;7.90;99.90;;;;;;4993115;28;20426;-75
2022/11/22 09:46:42;;;;;;;6.40;1.90;;;7.80;99.90;;;;;;5009732;28;20861;-76
2022/11/22 09:49:32;;;;;;;8.30;1.83;;;7.80;99.90;;;;;;5009563;28;20848;-76
2022/11/22 09:52:10;;;;;;;5.33;1.37;;;7.80;99.90;;;;;;5009267;28;20424;-76
2022/11/22 09:54:54;;;;;;;11.80;2.20;;;7.80;99.90;;;;;;5013102;28;20410;-75
2022/11/22 09:57:33;;;;;;;2.50;1.27;;;7.80;99.90;;;;;;5012804;28;20411;-76
2022/11/22 10:00:06;;;;;;;8.90;1.80;;;7.80;99.90;;;;;;5011646;28;20436;-75
2022/11/22 10:02:39;;;;;;;7.80;2.30;;;7.90;99.90;;;;;;5011715;28;20404;-76
2022/11/22 10:05:16;;;;;;;11.10;2.00;;;8.00;99.90;;;;;;5011522;28;20514;-76
2022/11/22 10:07:50;;;;;;;5.63;1.60;;;8.00;99.90;;;;;;5011036;28;20828;-76
2022/11/22 10:10:27;;;;;;;6.63;1.30;;;8.00;99.90;;;;;;5011385;28;20424;-76
2022/11/22 10:12:59;;;;;;;7.03;1.30;;;8.00;99.90;;;;;;5010930;28;20418;-76
2022/11/22 10:16:03;;;;;;;9.50;1.97;;;8.00;99.90;;;;;;5009694;28;21011;-76
2022/11/22 10:18:42;;;;;;;5.80;1.50;;;8.00;99.90;;;;;;5010325;28;20447;-75
2022/11/22 10:21:12;;;;;;;8.43;1.30;;;8.00;99.90;;;;;;5010467;28;20437;-75
2022/11/22 10:23:40;;;;;;;1.97;1.23;;;8.00;99.90;;;;;;5010114;28;20425;-76
2022/11/22 10:26:31;;;;;;;6.70;1.63;;;7.80;99.90;;;;;;5007862;28;20911;-76
2022/11/22 10:29:12;;;;;;;8.47;1.23;;;7.80;99.90;;;;;;5009452;28;20868;-76
2022/11/22 10:31:42;;;;;;;6.57;1.53;;;7.90;99.90;;;;;;5009457;28;20525;-76
2022/11/22 10:34:32;;;;;;;7.43;1.37;;;8.00;99.90;;;;;;5009494;28;20412;-76
2022/11/22 10:37:35;;;;;;;4.30;1.20;;;8.00;99.90;;;;;;5009863;28;20401;-76
2022/11/22 10:40:10;;;;;;;3.23;1.30;;;8.00;99.90;;;;;;5009713;28;20521;-76
2022/11/22 10:43:19;;;;;;;4.93;1.07;;;8.10;99.90;;;;;;5009792;28;20454;-76
2022/11/22 10:46:25;;;;;;;6.10;1.23;;;8.10;99.90;;;;;;5009774;28;20400;-76
2022/11/22 10:49:01;;;;;;;4.80;1.23;;;8.10;99.90;;;;;;5008219;28;20510;-76
2022/11/22 10:51:36;;;;;;;7.10;1.30;;;8.20;99.90;;;;;;5008015;28;21078;-75
2022/11/22 10:54:31;;;;;;;4.43;1.20;;;8.10;99.90;;;;;;5009422;28;20430;-76
2022/11/22 10:57:12;;;;;;;7.37;1.23;;;8.20;99.90;;;;;;5009408;28;20389;-76
2022/11/22 10:59:53;;;;;;;3.03;1.00;;;8.20;99.90;;;;;;5009307;28;20439;-76
2022/11/22 11:02:54;;;;;;;4.53;1.50;;;8.20;99.90;;;;;;5009311;28;20474;-77
2022/11/22 11:05:26;;;;;;;2.93;1.00;;;8.30;99.90;;;;;;5011916;28;20417;-76
2022/11/22 11:07:53;;;;;;;6.20;1.10;;;8.40;99.90;;;;;;5008914;28;20470;-76
2022/11/22 11:10:25;;;;;;;2.80;0.90;;;8.30;99.90;;;;;;5008735;28;20441;-76
2022/11/22 11:12:55;;;;;;;2.60;0.90;;;8.40;99.90;;;;;;5007488;28;20412;-76
2022/11/22 11:15:40;;;;;;;7.73;1.00;;;8.40;99.90;;;;;;5008989;28;20420;-77
2022/11/22 11:18:14;;;;;;;6.43;1.27;;;8.40;99.90;;;;;;5008947;28;20444;-76
2022/11/22 11:20:42;;;;;;;8.60;1.17;;;8.40;99.90;;;;;;5008682;28;20432;-76
2022/11/22 11:23:09;;;;;;;2.80;1.10;;;8.50;99.90;;;;;;5008709;28;20418;-76
2022/11/22 11:25:39;;;;;;;6.53;1.37;;;8.50;99.90;;;;;;5009106;28;20440;-76
2022/11/22 11:28:19;;;;;;;4.80;1.73;;;8.50;99.90;;;;;;5009445;28;20490;-78
2022/11/22 11:30:47;;;;;;;3.53;1.17;;;8.50;99.90;;;;;;5007331;28;20449;-76
2022/11/22 11:33:24;;;;;;;3.33;1.13;;;8.60;99.90;;;;;;5009182;28;20913;-76
2022/11/22 11:35:54;;;;;;;4.97;1.17;;;8.50;99.10;;;;;;5009448;28;20548;-79
2022/11/22 11:38:49;;;;;;;4.00;1.23;;;8.30;98.50;;;;;;5008160;28;20412;-76
2022/11/22 11:41:17;;;;;;;7.70;0.97;;;8.30;99.90;;;;;;5008567;28;20434;-76
2022/11/22 11:43:43;;;;;;;10.10;1.00;;;8.10;99.40;;;;;;5009755;28;20862;-77
2022/11/22 11:46:19;;;;;;;3.23;0.80;;;8.40;99.90;;;;;;5009952;28;20530;-77
2022/11/22 11:48:46;;;;;;;4.67;1.03;;;8.30;99.20;;;;;;5008863;28;20397;-77
2022/11/22 11:51:15;;;;;;;4.87;0.93;;;8.40;99.90;;;;;;5010997;28;20811;-78
2022/11/22 11:53:57;;;;;;;9.77;1.40;;;8.40;99.90;;;;;;5011489;28;20444;-77
2022/11/22 11:56:47;;;;;;;6.87;1.17;;;8.50;99.70;;;;;;5008978;28;20429;-77
2022/11/22 11:59:16;;;;;;;2.03;0.60;;;8.40;98.00;;;;;;5008816;28;20509;-78
2022/11/22 12:01:53;;;;;;;5.23;1.33;;;8.50;99.90;;;;;;5008724;28;20511;-78
2022/11/22 12:04:21;;;;;;;2.93;1.03;;;8.50;98.60;;;;;;5008615;28;20433;-77
2022/11/22 12:07:16;;;;;;;8.23;1.17;;;8.60;98.70;;;;;;5008324;28;21124;-77
2022/11/22 12:09:46;;;;;;;4.83;0.80;;;8.60;99.70;;;;;;5007980;28;20434;-77
2022/11/22 12:12:53;;;;;;;2.87;0.90;;;8.60;99.70;;;;;;5006896;28;21153;-77
2022/11/22 12:15:43;;;;;;;7.57;1.20;;;8.60;98.90;;;;;;4966511;28;20548;-77
2022/11/22 12:18:33;;;;;;;2.70;0.90;;;8.60;99.50;;;;;;4966340;28;20450;-78
2022/11/22 12:21:05;;;;;;;3.90;1.03;;;8.60;98.30;;;;;;5000360;28;20459;-78
2022/11/22 12:23:57;;;;;;;2.57;0.73;;;8.40;97.20;;;;;;5008193;28;20989;-78
2022/11/22 12:26:25;;;;;;;4.17;0.90;;;8.40;98.70;;;;;;5007987;28;20461;-77
2022/11/22 12:28:52;;;;;;;2.40;0.80;;;8.60;98.60;;;;;;5008126;28;20431;-76
2022/11/22 12:31:51;;;;;;;6.50;1.40;;;8.50;99.30;;;;;;5006605;28;20447;-77
2022/11/22 12:34:32;;;;;;;3.40;0.80;;;8.60;98.70;;;;;;5008095;28;20403;-76
2022/11/22 12:37:04;;;;;;;5.70;1.10;;;8.80;98.90;;;;;;5007909;28;20475;-76
2022/11/22 12:39:32;;;;;;;3.97;1.10;;;8.70;97.90;;;;;;5006581;28;20507;-77
2022/11/22 12:42:13;;;;;;;6.70;2.27;;;8.80;98.20;;;;;;5007156;28;20425;-77
2022/11/22 12:44:46;;;;;;;2.23;0.80;;;8.70;97.60;;;;;;5010424;28;20778;-77
2022/11/22 12:47:18;;;;;;;3.80;0.90;;;8.70;99.30;;;;;;5010256;28;20460;-77
2022/11/22 12:50:00;;;;;;;4.20;1.20;;;8.80;99.00;;;;;;5010080;28;20457;-77
2022/11/22 12:52:46;;;;;;;4.20;1.07;;;8.80;99.90;;;;;;5011376;28;20400;-77
2022/11/22 12:55:19;;;;;;;2.00;0.80;;;8.60;98.40;;;;;;5011372;28;20779;-78
2022/11/22 12:57:58;;;;;;;3.30;1.00;;;8.70;98.20;;;;;;5011501;28;20447;-77
2022/11/22 13:00:25;;;;;;;3.83;0.90;;;8.80;99.30;;;;;;5009175;28;20440;-77
2022/11/22 13:03:03;;;;;;;6.23;0.97;;;8.90;98.60;;;;;;4993133;28;20495;-77
2022/11/22 13:05:48;;;;;;;6.13;1.60;;;8.80;98.00;;;;;;5010784;28;20455;-77
2022/11/22 13:08:14;;;;;;;11.40;1.50;;;8.80;97.20;;;;;;5010605;28;20404;-77
2022/11/22 13:11:02;;;;;;;4.80;0.93;;;8.90;98.00;;;;;;5010589;28;20440;-78
2022/11/22 13:13:37;;;;;;;2.67;0.70;;;8.80;98.20;;;;;;4998826;28;20196;-78
2022/11/22 13:16:07;;;;;;;6.00;1.20;;;8.90;98.10;;;;;;5008821;28;20421;-77
2022/11/22 13:18:38;;;;;;;2.43;0.90;;;9.00;99.00;;;;;;5010161;28;20503;-77
2022/11/22 13:21:25;;;;;;;2.13;0.93;;;9.00;98.20;;;;;;5008394;28;21072;-77
2022/11/22 13:24:10;;;;;;;4.23;0.80;;;9.10;99.20;;;;;;5010127;28;20411;-77